createdAt,value
2018-02-15T00:00:33.408Z,13.70
2018-02-15T00:03:44.930Z,15.53
2018-02-15T00:06:49.910Z,13.40
2018-02-15T00:09:58.674Z,15.13
2018-02-15T00:13:03.200Z,13.27
2018-02-15T00:16:15.870Z,13.23
2018-02-15T00:19:22.979Z,14.90
2018-02-15T00:22:28.160Z,12.23
2018-02-15T00:25:34.567Z,13.27
2018-02-15T00:28:58.249Z,14.90
2018-02-15T00:32:04.575Z,16.57
2018-02-15T00:35:09.823Z,12.77
2018-02-15T00:38:15.628Z,12.37
2018-02-15T00:41:21.429Z,13.77
2018-02-15T00:44:27.094Z,13.00
2018-02-15T00:47:33.632Z,11.80
2018-02-15T00:50:38.680Z,12.93
2018-02-15T00:53:45.154Z,13.97
2018-02-15T00:56:50.094Z,13.57
2018-02-15T00:59:57.736Z,13.40
2018-02-15T01:03:05.596Z,14.37
2018-02-15T01:06:11.041Z,13.50
2018-02-15T01:09:21.003Z,16.20
2018-02-15T01:12:27.702Z,12.97
2018-02-15T01:15:33.195Z,19.00
2018-02-15T01:18:39.065Z,19.50
2018-02-15T01:21:43.954Z,13.47
2018-02-15T01:24:52.680Z,12.70
2018-02-15T01:28:00.386Z,13.30
2018-02-15T01:31:08.003Z,12.10
2018-02-15T01:34:22.088Z,13.50
2018-02-15T01:37:35.364Z,12.27
2018-02-15T01:40:46.516Z,11.63
2018-02-15T01:43:51.623Z,14.67
2018-02-15T01:46:57.607Z,11.07
2018-02-15T01:50:15.317Z,13.03
2018-02-15T01:53:20.949Z,14.30
2018-02-15T01:56:27.364Z,12.67
2018-02-15T01:59:33.093Z,13.00
2018-02-15T02:02:41.838Z,10.20
2018-02-15T02:05:51.157Z,10.47
2018-02-15T02:09:08.456Z,11.20
2018-02-15T02:12:20.483Z,11.23
2018-02-15T02:15:31.288Z,12.30
2018-02-15T02:18:38.088Z,13.30
2018-02-15T02:21:45.421Z,8.30
2018-02-15T02:24:56.630Z,10.93
2018-02-15T02:28:05.276Z,10.67
2018-02-15T02:31:11.465Z,9.00
2018-02-15T02:34:23.068Z,15.33
2018-02-15T02:37:30.181Z,10.90
2018-02-15T02:40:36.290Z,9.07
2018-02-15T02:43:46.984Z,10.57
2018-02-15T02:46:54.397Z,12.83
2018-02-15T02:50:00.978Z,11.93
2018-02-15T02:53:06.605Z,10.00
2018-02-15T02:56:12.478Z,10.00
2018-02-15T02:59:24.708Z,9.87
2018-02-15T03:02:34.244Z,12.20
2018-02-15T03:05:40.139Z,12.47
2018-02-15T03:08:52.556Z,14.00
2018-02-15T03:11:58.324Z,12.03
2018-02-15T03:15:04.391Z,10.00
2018-02-15T03:18:16.476Z,9.47
2018-02-15T03:21:21.333Z,9.40
2018-02-15T03:28:00.772Z,12.10
2018-02-15T03:31:07.648Z,9.60
2018-02-15T03:34:14.915Z,9.20
2018-02-15T03:37:26.590Z,13.60
2018-02-15T03:40:31.732Z,10.60
2018-02-15T03:43:49.143Z,9.27
2018-02-15T03:46:54.117Z,9.90
2018-02-15T03:49:59.553Z,11.23
2018-02-15T03:53:05.368Z,10.10
2018-02-15T03:56:10.845Z,11.77
2018-02-15T03:59:15.979Z,13.63
2018-02-15T04:02:24.632Z,9.97
2018-02-15T04:05:29.821Z,14.07
2018-02-15T04:08:36.068Z,12.90
2018-02-15T04:11:41.497Z,8.87
2018-02-15T04:14:53.464Z,14.20
2018-02-15T04:18:02.380Z,14.30
2018-02-15T04:21:07.623Z,13.50
2018-02-15T04:24:12.777Z,11.57
2018-02-15T04:27:18.607Z,10.70
2018-02-15T04:30:32.823Z,12.07
2018-02-15T04:33:42.796Z,11.53
2018-02-15T04:36:50.676Z,12.03
2018-02-15T04:39:56.305Z,12.87
2018-02-15T04:43:01.427Z,13.20
2018-02-15T04:46:07.056Z,13.03
2018-02-15T04:49:12.636Z,16.23
2018-02-15T04:52:19.951Z,17.40
2018-02-15T04:55:28.144Z,14.80
2018-02-15T04:58:33.751Z,14.97
2018-02-15T05:01:38.648Z,13.60
2018-02-15T05:04:44.477Z,15.57
2018-02-15T05:07:49.553Z,14.57
2018-02-15T05:11:01.960Z,12.33
2018-02-15T05:14:08.733Z,14.83
2018-02-15T05:17:14.023Z,14.10
2018-02-15T05:20:25.319Z,15.73
2018-02-15T05:23:35.379Z,14.30
2018-02-15T05:26:41.560Z,14.20
2018-02-15T05:29:46.316Z,12.53
2018-02-15T05:32:51.591Z,12.30
2018-02-15T05:39:30.801Z,16.27
2018-02-15T05:42:39.120Z,13.63
2018-02-15T05:45:49.423Z,17.80
2018-02-15T05:48:54.524Z,19.00
2018-02-15T05:52:00.924Z,13.10
2018-02-15T05:55:06.812Z,14.80
2018-02-15T05:58:22.572Z,18.03
2018-02-15T06:01:28.312Z,15.77
2018-02-15T06:04:33.764Z,14.87
2018-02-15T06:07:40.250Z,12.50
2018-02-15T06:10:45.704Z,14.20
2018-02-15T06:13:50.576Z,13.37
2018-02-15T06:16:55.866Z,14.90
2018-02-15T06:20:00.838Z,12.70
2018-02-15T06:23:06.152Z,13.67
2018-02-15T06:26:11.188Z,14.20
2018-02-15T06:29:17.640Z,14.13
2018-02-15T06:32:22.634Z,15.40
2018-02-15T06:35:27.840Z,12.30
2018-02-15T06:38:33.632Z,19.20
2018-02-15T06:41:39.340Z,15.10
2018-02-15T06:44:44.192Z,16.23
2018-02-15T06:47:49.784Z,15.30
2018-02-15T06:50:55.310Z,17.97
2018-02-15T06:54:00.476Z,16.77
2018-02-15T06:57:07.203Z,16.40
2018-02-15T07:00:12.277Z,17.97
2018-02-15T07:03:20.597Z,16.30
2018-02-15T07:06:27.101Z,20.00
2018-02-15T07:09:32.466Z,18.43
2018-02-15T07:12:39.080Z,17.30
2018-02-15T07:15:44.187Z,20.13
2018-02-15T07:18:49.194Z,19.77
2018-02-15T07:21:54.017Z,20.23
2018-02-15T07:25:00.432Z,49.00
2018-02-15T07:28:05.206Z,54.47
2018-02-15T07:31:10.227Z,36.33
2018-02-15T07:34:15.234Z,28.23
2018-02-15T07:37:20.079Z,30.30
2018-02-15T07:40:24.948Z,22.03
2018-02-15T07:43:30.076Z,21.70
2018-02-15T07:46:35.411Z,23.27
2018-02-15T07:49:40.709Z,20.17
2018-02-15T07:52:46.314Z,25.23
2018-02-15T07:55:51.109Z,23.20
2018-02-15T07:58:56.280Z,21.47
2018-02-15T08:02:01.676Z,22.93
2018-02-15T08:05:08.005Z,23.87
2018-02-15T08:08:13.024Z,23.00
2018-02-15T08:11:18.309Z,23.53
2018-02-15T08:14:24.010Z,26.13
2018-02-15T08:17:31.395Z,27.60
2018-02-15T08:20:37.289Z,28.73
2018-02-15T08:23:42.167Z,24.93
2018-02-15T08:26:47.580Z,26.70
2018-02-15T08:29:52.222Z,33.10
2018-02-15T08:32:57.773Z,21.97
2018-02-15T08:36:03.121Z,22.53
2018-02-15T08:39:08.960Z,23.07
2018-02-15T08:42:13.569Z,24.63
2018-02-15T08:45:18.818Z,22.97
2018-02-15T08:48:24.101Z,23.70
2018-02-15T08:51:30.288Z,23.30
2018-02-15T08:54:37.141Z,21.53
2018-02-15T08:57:42.537Z,21.37
2018-02-15T09:00:47.637Z,19.50
2018-02-15T09:03:52.439Z,19.00
2018-02-15T09:06:57.968Z,20.67
2018-02-15T09:10:02.823Z,20.50
2018-02-15T09:13:07.775Z,21.50
2018-02-15T09:16:13.072Z,19.30
2018-02-15T09:19:18.888Z,21.37
2018-02-15T09:22:29.891Z,21.43
2018-02-15T09:25:34.604Z,23.00
2018-02-15T09:28:39.947Z,23.03
2018-02-15T09:31:45.326Z,23.63
2018-02-15T09:34:51.151Z,22.30
2018-02-15T09:37:57.012Z,18.80
2018-02-15T09:41:02.152Z,22.53
2018-02-15T09:44:08.556Z,20.77
2018-02-15T09:47:14.074Z,26.07
2018-02-15T09:50:19.683Z,21.67
2018-02-15T09:53:24.808Z,26.93
2018-02-15T09:56:30.965Z,24.27
2018-02-15T09:59:36.630Z,22.80
2018-02-15T10:02:43.147Z,26.50
2018-02-15T10:05:48.896Z,17.50
2018-02-15T10:08:54.340Z,21.50
2018-02-15T10:11:59.522Z,22.23
2018-02-15T10:15:04.992Z,26.40
2018-02-15T10:18:10.244Z,28.93
2018-02-15T10:21:15.593Z,24.50
2018-02-15T10:24:20.612Z,25.30
2018-02-15T10:27:25.348Z,25.97
2018-02-15T10:30:30.400Z,24.60
2018-02-15T10:33:35.591Z,25.20
2018-02-15T10:36:41.064Z,28.03
2018-02-15T10:39:45.784Z,26.17
2018-02-15T10:42:51.523Z,26.00
2018-02-15T10:45:56.944Z,23.63
2018-02-15T10:49:02.520Z,22.00
2018-02-15T10:52:07.561Z,20.70
2018-02-15T10:55:12.951Z,23.70
2018-02-15T10:58:18.049Z,20.43
2018-02-15T11:01:30.074Z,21.20
2018-02-15T11:04:41.336Z,25.83
2018-02-15T11:07:46.896Z,23.17
2018-02-15T11:10:51.883Z,22.97
2018-02-15T11:13:57.535Z,21.87
2018-02-15T11:17:03.419Z,23.70
2018-02-15T11:20:09.389Z,19.97
2018-02-15T11:23:14.541Z,22.73
2018-02-15T11:26:19.675Z,23.97
2018-02-15T11:29:25.144Z,22.17
2018-02-15T11:32:30.215Z,23.73
2018-02-15T11:35:36.739Z,22.73
2018-02-15T11:38:42.263Z,19.83
2018-02-15T11:41:48.983Z,23.00
2018-02-15T11:44:54.421Z,23.90
2018-02-15T11:48:03.134Z,21.70
2018-02-15T11:51:07.587Z,26.40
2018-02-15T11:54:13.043Z,24.00
2018-02-15T11:57:21.647Z,20.00
2018-02-15T12:00:27.972Z,19.97
2018-02-15T12:03:35.820Z,19.80
2018-02-15T12:06:47.052Z,20.63
2018-02-15T12:09:52.211Z,20.07
2018-02-15T12:12:57.928Z,23.10
2018-02-15T12:16:03.678Z,17.80
2018-02-15T12:19:08.980Z,21.20
2018-02-15T12:22:13.884Z,22.53
2018-02-15T12:25:19.429Z,23.10
2018-02-15T12:28:24.488Z,22.67
2018-02-15T12:31:29.652Z,22.40
2018-02-15T12:34:46.383Z,25.43
2018-02-15T12:37:51.764Z,20.70
2018-02-15T12:40:56.944Z,22.37
2018-02-15T12:44:14.420Z,26.00
2018-02-15T12:47:19.799Z,24.87
2018-02-15T12:50:25.508Z,22.23
2018-02-15T12:53:30.812Z,22.60
2018-02-15T12:56:43.754Z,25.30
2018-02-15T12:59:48.982Z,23.47
2018-02-15T13:02:54.646Z,21.23
2018-02-15T13:05:59.755Z,23.40
2018-02-15T13:09:05.860Z,25.83
2018-02-15T13:12:10.734Z,20.43
2018-02-15T13:15:15.800Z,23.93
2018-02-15T13:18:21.175Z,25.67
2018-02-15T13:21:27.844Z,23.57
2018-02-15T13:24:33.636Z,25.60
2018-02-15T13:27:44.851Z,27.37
2018-02-15T13:30:50.558Z,27.03
2018-02-15T13:33:56.187Z,30.43
2018-02-15T13:37:01.491Z,28.93
2018-02-15T13:40:06.505Z,32.00
2018-02-15T13:43:11.847Z,29.23
2018-02-15T13:46:17.076Z,32.73
2018-02-15T13:49:31.035Z,26.80
2018-02-15T13:52:36.570Z,31.97
2018-02-15T13:55:42.036Z,31.70
2018-02-15T13:58:48.214Z,32.43
2018-02-15T14:01:54.126Z,37.00
2018-02-15T14:05:00.578Z,34.30
2018-02-15T14:08:06.736Z,36.30
2018-02-15T14:11:11.998Z,36.73
2018-02-15T14:14:17.604Z,33.40
2018-02-15T14:17:22.487Z,45.40
2018-02-15T14:20:28.379Z,44.93
2018-02-15T14:23:34.519Z,39.43
2018-02-15T14:26:39.606Z,40.47
2018-02-15T14:29:45.165Z,40.17
2018-02-15T14:32:52.193Z,38.57
2018-02-15T14:35:57.467Z,38.00
2018-02-15T14:39:02.855Z,38.47
2018-02-15T14:42:08.170Z,41.37
2018-02-15T14:45:13.952Z,45.53
2018-02-15T14:48:20.636Z,44.70
2018-02-15T14:51:25.308Z,39.53
2018-02-15T14:54:30.900Z,44.10
2018-02-15T14:57:36.178Z,41.53
2018-02-15T15:00:41.211Z,40.70
2018-02-15T15:03:46.492Z,42.53
2018-02-15T15:06:51.516Z,42.97
2018-02-15T15:09:56.689Z,38.03
2018-02-15T15:13:02.409Z,43.00
2018-02-15T15:16:07.696Z,42.83
2018-02-15T15:19:13.341Z,42.40
2018-02-15T15:22:18.503Z,42.67
2018-02-15T15:25:23.892Z,43.83
2018-02-15T15:28:29.468Z,44.63
2018-02-15T15:31:35.944Z,42.30
2018-02-15T15:34:41.703Z,41.20
2018-02-15T15:37:47.148Z,46.50
2018-02-15T15:40:52.724Z,43.37
2018-02-15T15:43:58.153Z,41.40
2018-02-15T15:47:04.124Z,48.00
2018-02-15T15:50:09.449Z,43.47
2018-02-15T15:53:14.962Z,46.33
2018-02-15T15:56:20.818Z,45.23
2018-02-15T15:59:26.511Z,44.63
2018-02-15T16:02:32.012Z,44.80
2018-02-15T16:05:38.488Z,47.13
2018-02-15T16:08:44.076Z,40.63
2018-02-15T16:11:49.748Z,42.90
2018-02-15T16:14:55.868Z,46.23
2018-02-15T16:18:01.328Z,42.57
2018-02-15T16:21:07.303Z,42.53
2018-02-15T16:24:13.141Z,40.60
2018-02-15T16:27:18.199Z,43.33
2018-02-15T16:30:25.087Z,45.13
2018-02-15T16:33:30.423Z,41.03
2018-02-15T16:36:36.327Z,44.73
2018-02-15T16:39:41.692Z,43.67
2018-02-15T16:42:47.881Z,43.60
2018-02-15T16:45:52.851Z,41.90
2018-02-15T16:48:59.039Z,42.17
2018-02-15T16:52:04.696Z,44.47
2018-02-15T16:55:09.487Z,40.73
2018-02-15T16:58:14.963Z,37.00
2018-02-15T17:01:20.586Z,40.03
2018-02-15T17:04:26.380Z,42.23
2018-02-15T17:07:32.711Z,45.30
2018-02-15T17:10:39.761Z,38.80
2018-02-15T17:13:45.149Z,39.97
2018-02-15T17:16:50.108Z,48.77
2018-02-15T17:19:54.864Z,50.90
2018-02-15T17:23:00.093Z,49.60
2018-02-15T17:26:05.649Z,46.23
2018-02-15T17:29:11.490Z,53.80
2018-02-15T17:32:16.271Z,45.60
2018-02-15T17:35:21.224Z,47.37
2018-02-15T17:38:26.131Z,55.83
2018-02-15T17:41:31.192Z,53.37
2018-02-15T17:44:36.249Z,48.17
2018-02-15T17:47:43.676Z,49.27
2018-02-15T17:50:48.855Z,44.97
2018-02-15T17:53:55.065Z,49.20
2018-02-15T17:57:00.480Z,41.33
2018-02-15T18:00:06.239Z,46.27
2018-02-15T18:03:11.328Z,49.00
2018-02-15T18:06:16.738Z,46.33
2018-02-15T18:09:21.759Z,45.27
2018-02-15T18:12:27.436Z,40.57
2018-02-15T18:15:32.548Z,41.87
2018-02-15T18:18:37.287Z,36.30
2018-02-15T18:21:42.872Z,45.93
2018-02-15T18:24:47.919Z,46.83
2018-02-15T18:27:53.152Z,47.77
2018-02-15T18:30:58.872Z,44.80
2018-02-15T18:34:04.168Z,42.20
2018-02-15T18:37:09.755Z,38.73
2018-02-15T18:40:15.018Z,40.87
2018-02-15T18:43:19.991Z,42.80
2018-02-15T18:46:25.325Z,40.57
2018-02-15T18:49:30.268Z,44.13
2018-02-15T18:52:35.468Z,41.47
2018-02-15T18:55:41.359Z,44.03
2018-02-15T18:58:48.595Z,50.00
2018-02-15T19:01:53.780Z,39.13
2018-02-15T19:04:59.064Z,40.50
2018-02-15T19:08:04.400Z,43.03
2018-02-15T19:11:12.491Z,55.13
2018-02-15T19:14:17.483Z,50.27
2018-02-15T19:17:23.231Z,41.93
2018-02-15T19:20:29.192Z,38.67
2018-02-15T19:23:34.499Z,38.10
2018-02-15T19:26:40.175Z,36.00
2018-02-15T19:29:45.871Z,34.70
2018-02-15T19:32:51.112Z,33.57
2018-02-15T19:35:56.653Z,36.77
2018-02-15T19:39:01.614Z,36.03
2018-02-15T19:42:06.962Z,35.43
2018-02-15T19:45:12.129Z,33.57
2018-02-15T19:48:17.504Z,32.30
2018-02-15T19:51:23.315Z,32.77
2018-02-15T19:54:29.053Z,35.27
2018-02-15T19:57:35.519Z,32.37
2018-02-15T20:00:41.711Z,34.47
2018-02-15T20:03:47.586Z,38.00
2018-02-15T20:06:53.255Z,37.10
2018-02-15T20:09:58.616Z,33.07
2018-02-15T20:13:04.346Z,39.50
2018-02-15T20:16:10.436Z,36.10
2018-02-15T20:19:17.450Z,35.87
2018-02-15T20:22:22.621Z,35.30
2018-02-15T20:25:28.135Z,38.23
2018-02-15T20:28:34.611Z,38.80
2018-02-15T20:31:40.120Z,38.13
2018-02-15T20:34:46.079Z,35.00
2018-02-15T20:37:58.077Z,34.23
2018-02-15T20:41:03.299Z,37.00
2018-02-15T20:44:09.172Z,37.90
2018-02-15T20:47:14.893Z,34.20
2018-02-15T20:50:26.640Z,30.60
2018-02-15T20:53:38.683Z,31.40
2018-02-15T20:56:44.252Z,26.77
2018-02-15T20:59:49.366Z,29.67
2018-02-15T21:02:54.600Z,32.00
2018-02-15T21:06:00.484Z,28.33
2018-02-15T21:09:05.500Z,29.23
2018-02-15T21:12:11.378Z,29.27
2018-02-15T21:15:16.464Z,30.40
2018-02-15T21:18:21.805Z,31.07
2018-02-15T21:21:26.868Z,32.83
2018-02-15T21:24:32.056Z,30.90
2018-02-15T21:27:37.804Z,32.10
2018-02-15T21:30:44.471Z,29.80
2018-02-15T21:33:50.076Z,37.50
2018-02-15T21:37:01.917Z,33.00
2018-02-15T21:40:07.851Z,33.10
2018-02-15T21:43:18.056Z,37.63
2018-02-15T21:46:24.889Z,33.40
2018-02-15T21:49:29.914Z,29.73
2018-02-15T21:52:35.623Z,29.13
2018-02-15T21:55:41.045Z,25.87
2018-02-15T21:58:46.498Z,27.10
2018-02-15T22:01:53.025Z,26.93
2018-02-15T22:04:58.754Z,23.80
2018-02-15T22:08:03.629Z,26.73
2018-02-15T22:11:09.616Z,27.57
2018-02-15T22:14:15.186Z,27.97
2018-02-15T22:17:20.151Z,26.37
2018-02-15T22:20:24.935Z,30.63
2018-02-15T22:23:29.904Z,26.07
2018-02-15T22:26:35.688Z,25.63
2018-02-15T22:29:40.508Z,24.57
2018-02-15T22:32:46.219Z,36.93
2018-02-15T22:35:51.493Z,36.10
2018-02-15T22:38:56.400Z,36.43
2018-02-15T22:42:02.170Z,47.93
2018-02-15T22:45:07.277Z,23.87
2018-02-15T22:48:12.912Z,30.60
2018-02-15T22:51:18.256Z,38.07
2018-02-15T22:54:23.615Z,36.67
2018-02-15T22:57:29.103Z,34.43
2018-02-15T23:00:34.837Z,35.27
2018-02-15T23:03:40.580Z,39.80
2018-02-15T23:06:47.188Z,34.80
2018-02-15T23:09:53.084Z,37.63
2018-02-15T23:12:58.880Z,30.33
2018-02-15T23:16:04.574Z,34.67
2018-02-15T23:19:09.919Z,35.20
2018-02-15T23:22:14.952Z,37.07
2018-02-15T23:25:19.964Z,36.50
2018-02-15T23:28:25.312Z,32.30
2018-02-15T23:31:30.973Z,32.17
2018-02-15T23:34:36.068Z,32.03
2018-02-15T23:37:41.349Z,32.00
2018-02-15T23:40:47.281Z,35.60
2018-02-15T23:43:52.278Z,32.70
2018-02-15T23:46:58.765Z,34.40
2018-02-15T23:50:04.394Z,35.57
2018-02-15T23:53:10.138Z,31.30
2018-02-15T23:56:15.146Z,33.57
2018-02-15T23:59:20.540Z,28.87
